Time;durP1;ratioP1;P1;durP2;ratioP2;P2;SDS_P1;SDS_P2;PMS_P1;PMS_P2;Temp;Humidity;BMP_temperature;BMP_pressure;BME280_temperature;BME280_humidity;BME280_pressure;Samples;Min_cycle;Max_cycle;Signal;HPM_P1;HPM_P2
2022/12/22 03:28:13;;;;;;;36.63;25.23;;;7.70;96.30;;;;;;5013211;28;20574;-55
2022/12/22 03:30:40;;;;;;;38.58;25.60;;;7.70;96.30;;;;;;5012064;28;20052;-54
2022/12/22 03:33:07;;;;;;;34.28;24.08;;;7.70;96.30;;;;;;5036462;28;20041;-57
2022/12/22 03:35:34;;;;;;;33.80;23.38;;;7.70;96.30;;;;;;5052441;28;20104;-56
2022/12/22 03:38:03;;;;;;;36.70;24.50;;;7.70;96.30;;;;;;5052084;28;20029;-53
2022/12/22 03:40:32;;;;;;;39.33;25.17;;;7.70;96.30;;;;;;5051525;28;20069;-56
2022/12/22 03:48:31;;;;;;;36.17;23.45;;;7.70;96.40;;;;;;5051133;28;20047;-55
2022/12/22 03:50:58;;;;;;;35.75;23.50;;;7.70;96.40;;;;;;5052797;28;20384;-54
2022/12/22 03:53:24;;;;;;;39.17;25.23;;;7.70;96.40;;;;;;5051655;28;20021;-54
2022/12/22 03:55:51;;;;;;;34.95;23.83;;;7.70;96.30;;;;;;5041227;28;20033;-51
2022/12/22 03:58:18;;;;;;;39.58;24.42;;;7.70;96.40;;;;;;5038747;28;20021;-55
2022/12/22 04:00:45;;;;;;;36.92;25.08;;;7.70;96.40;;;;;;5054818;28;20035;-50
2022/12/22 04:03:13;;;;;;;41.63;26.63;;;7.70;96.40;;;;;;5056076;28;20071;-54
2022/12/22 04:05:39;;;;;;;39.42;25.88;;;7.70;96.40;;;;;;5047830;28;20117;-52
2022/12/22 04:08:07;;;;;;;41.05;26.65;;;7.70;96.40;;;;;;5036344;28;20036;-52
2022/12/22 04:13:17;;;;;;;38.78;25.45;;;7.70;96.40;;;;;;5056062;28;20043;-49
2022/12/22 04:15:44;;;;;;;38.15;24.58;;;7.70;96.40;;;;;;5056350;28;20013;-52
2022/12/22 04:18:11;;;;;;;41.50;25.58;;;7.70;96.40;;;;;;5056261;28;20025;-51
2022/12/22 04:20:42;;;;;;;44.25;26.63;;;7.70;96.40;;;;;;5054637;28;20029;-53
2022/12/22 04:23:09;;;;;;;44.97;25.55;;;7.70;96.40;;;;;;5056158;28;20044;-49
2022/12/22 04:25:35;;;;;;;44.35;25.15;;;7.70;96.40;;;;;;5054407;28;20032;-51
2022/12/22 04:28:02;;;;;;;42.38;25.23;;;7.70;96.40;;;;;;5055785;28;20115;-50
2022/12/22 04:30:28;;;;;;;48.30;26.45;;;7.70;96.40;;;;;;5055744;28;20422;-51
2022/12/22 04:32:55;;;;;;;45.75;26.25;;;7.70;96.40;;;;;;5053152;28;20462;-50
2022/12/22 04:35:22;;;;;;;51.38;28.13;;;7.80;96.40;;;;;;5036141;28;20094;-52
2022/12/22 04:37:49;;;;;;;40.97;25.08;;;7.70;96.40;;;;;;5035817;28;20034;-52
2022/12/22 04:40:16;;;;;;;43.28;26.50;;;7.70;96.40;;;;;;5035904;28;20030;-50
2022/12/22 04:42:45;;;;;;;45.30;26.02;;;7.70;96.40;;;;;;5035735;28;20036;-51
2022/12/22 04:45:12;;;;;;;40.97;24.15;;;7.80;96.50;;;;;;5036732;28;20091;-51
2022/12/22 04:47:39;;;;;;;44.63;26.42;;;7.70;96.40;;;;;;5055667;28;20110;-49
2022/12/22 04:50:06;;;;;;;50.90;26.58;;;7.70;96.40;;;;;;5053947;28;20083;-49
2022/12/22 04:52:36;;;;;;;44.42;27.45;;;7.70;96.40;;;;;;5055372;28;20045;-50
2022/12/22 04:55:05;;;;;;;42.38;25.23;;;7.70;96.40;;;;;;5055384;28;20021;-50
2022/12/22 04:57:32;;;;;;;39.75;24.83;;;7.70;96.50;;;;;;5053969;28;20021;-50
2022/12/22 04:59:58;;;;;;;44.83;26.88;;;7.70;96.40;;;;;;5055502;28;20315;-52
2022/12/22 05:02:25;;;;;;;43.80;24.60;;;7.70;96.40;;;;;;5053710;28;20060;-50
2022/12/22 05:04:52;;;;;;;40.35;24.98;;;7.70;96.40;;;;;;5053532;28;20033;-48
2022/12/22 05:07:21;;;;;;;38.03;22.35;;;7.70;96.50;;;;;;5054823;28;20033;-50
2022/12/22 05:09:47;;;;;;;40.65;26.05;;;7.70;96.40;;;;;;5053150;28;20036;-48
2022/12/22 05:14:59;;;;;;;43.95;24.88;;;7.70;96.40;;;;;;5035633;28;20040;-50
2022/12/22 05:17:28;;;;;;;43.08;26.67;;;7.70;96.40;;;;;;5033744;28;20021;-48
2022/12/22 05:19:55;;;;;;;45.47;26.67;;;7.70;96.50;;;;;;5035210;28;20033;-48
2022/12/22 05:22:23;;;;;;;44.95;24.95;;;7.70;96.50;;;;;;5034558;28;20355;-48
2022/12/22 05:24:50;;;;;;;42.60;24.88;;;7.60;96.40;;;;;;5045319;28;20040;-52
2022/12/22 05:27:17;;;;;;;44.13;25.23;;;7.60;96.40;;;;;;5054928;28;20029;-51
2022/12/22 05:29:43;;;;;;;43.03;25.40;;;7.60;96.40;;;;;;5055076;28;20028;-48
2022/12/22 05:32:09;;;;;;;43.30;25.23;;;7.50;96.40;;;;;;5054702;28;20090;-51
2022/12/22 05:34:36;;;;;;;47.10;27.02;;;7.50;96.40;;;;;;5052997;28;20041;-51
2022/12/22 05:37:03;;;;;;;51.30;29.60;;;7.40;96.40;;;;;;5053234;28;20029;-49
2022/12/22 05:39:30;;;;;;;52.08;29.70;;;7.40;96.40;;;;;;5035099;28;20033;-50
2022/12/22 05:41:57;;;;;;;50.13;26.98;;;7.40;96.40;;;;;;5034689;28;20029;-51
2022/12/22 05:44:23;;;;;;;52.97;29.40;;;7.40;96.50;;;;;;5042274;28;20044;-49
2022/12/22 05:46:51;;;;;;;48.35;26.88;;;7.40;96.40;;;;;;5054549;28;20138;-48
2022/12/22 05:49:18;;;;;;;51.15;27.70;;;7.40;96.40;;;;;;5054492;28;20021;-52
2022/12/22 05:51:45;;;;;;;52.80;28.90;;;7.40;96.40;;;;;;5044461;28;20029;-49
2022/12/22 05:54:13;;;;;;;43.63;26.17;;;7.30;96.40;;;;;;5034302;28;20029;-49
2022/12/22 05:56:40;;;;;;;44.30;24.77;;;7.30;96.40;;;;;;5033599;28;20781;-50
2022/12/22 05:59:09;;;;;;;41.03;25.02;;;7.20;96.30;;;;;;5016988;28;20079;-50
2022/12/22 06:01:36;;;;;;;44.15;24.33;;;7.10;96.30;;;;;;5050712;28;20049;-52
2022/12/22 06:04:03;;;;;;;43.97;23.58;;;7.00;96.30;;;;;;5054363;28;20044;-49
2022/12/22 06:06:29;;;;;;;46.40;23.98;;;6.90;96.30;;;;;;5053319;28;20040;-52
2022/12/22 06:08:56;;;;;;;41.83;23.38;;;6.90;96.30;;;;;;5035335;28;20037;-51
2022/12/22 06:11:23;;;;;;;41.45;23.52;;;6.90;96.40;;;;;;5033892;28;20065;-48
2022/12/22 06:13:49;;;;;;;46.60;25.73;;;6.90;96.40;;;;;;5033127;28;20025;-50
2022/12/22 06:16:20;;;;;;;44.42;24.67;;;6.90;96.40;;;;;;5052120;28;20091;-51
2022/12/22 06:18:50;;;;;;;48.92;26.63;;;6.90;96.40;;;;;;5052387;28;20025;-51
2022/12/22 06:21:16;;;;;;;49.88;25.20;;;6.90;96.40;;;;;;5053050;28;20511;-51
2022/12/22 06:23:42;;;;;;;54.17;29.23;;;6.90;96.50;;;;;;5051013;28;20881;-53
2022/12/22 06:26:08;;;;;;;50.20;26.80;;;6.90;96.50;;;;;;5033007;28;20029;-50
2022/12/22 06:28:35;;;;;;;55.90;28.85;;;6.90;96.50;;;;;;5034910;28;20123;-49
2022/12/22 06:31:02;;;;;;;58.92;26.92;;;6.90;96.40;;;;;;5052716;28;20537;-50
2022/12/22 06:33:28;;;;;;;44.53;24.40;;;6.90;96.40;;;;;;5053805;28;20044;-50
2022/12/22 06:35:54;;;;;;;49.20;25.08;;;6.90;96.40;;;;;;5053483;28;20025;-53
2022/12/22 06:38:21;;;;;;;51.85;25.45;;;6.80;96.40;;;;;;5042150;28;20025;-51
2022/12/22 06:40:48;;;;;;;49.42;26.60;;;6.80;96.40;;;;;;5033894;28;20029;-52
2022/12/22 06:43:14;;;;;;;51.10;27.67;;;6.70;96.40;;;;;;5032838;28;20030;-52
2022/12/22 06:45:42;;;;;;;46.85;25.42;;;6.70;96.30;;;;;;5033433;28;20028;-52
2022/12/22 06:48:10;;;;;;;52.67;27.20;;;6.60;96.40;;;;;;5032410;28;20029;-52
2022/12/22 06:50:37;;;;;;;70.63;30.05;;;6.60;96.40;;;;;;5032770;28;20117;-54
2022/12/22 06:53:04;;;;;;;54.17;27.80;;;6.60;96.40;;;;;;5012657;28;20044;-53
2022/12/22 06:55:30;;;;;;;65.68;31.20;;;6.70;96.40;;;;;;5012510;28;20435;-53
2022/12/22 06:57:57;;;;;;;53.40;28.50;;;6.70;96.40;;;;;;5026153;28;20044;-51
2022/12/22 07:00:23;;;;;;;57.90;29.80;;;6.70;96.40;;;;;;5053252;28;20028;-49
2022/12/22 07:02:50;;;;;;;59.10;29.27;;;6.60;96.40;;;;;;5052930;28;20474;-51
2022/12/22 07:05:22;;;;;;;61.83;30.85;;;6.70;96.40;;;;;;5052365;28;20116;-51
2022/12/22 07:07:50;;;;;;;60.17;31.80;;;6.60;96.40;;;;;;5046281;28;20049;-50
2022/12/22 07:10:16;;;;;;;55.80;28.50;;;6.60;96.40;;;;;;5033155;28;20116;-53
2022/12/22 07:12:44;;;;;;;56.80;28.95;;;6.50;96.40;;;;;;5032961;28;20024;-49
2022/12/22 07:15:10;;;;;;;55.13;27.80;;;6.50;96.40;;;;;;5032799;28;20099;-55
2022/12/22 07:17:37;;;;;;;55.47;28.45;;;6.40;96.40;;;;;;5032335;28;20018;-53
2022/12/22 07:20:04;;;;;;;52.90;26.75;;;6.40;96.40;;;;;;5041961;28;20081;-51
2022/12/22 07:22:33;;;;;;;64.75;30.52;;;6.40;96.30;;;;;;5052919;28;20345;-51
2022/12/22 07:25:00;;;;;;;59.77;28.03;;;6.40;96.30;;;;;;5052235;28;20447;-55
2022/12/22 07:27:26;;;;;;;70.53;29.67;;;6.30;96.30;;;;;;5050774;28;20094;-50
2022/12/22 07:29:53;;;;;;;55.90;26.83;;;6.30;96.40;;;;;;5052562;28;20025;-56
2022/12/22 07:32:20;;;;;;;59.25;27.23;;;6.30;96.40;;;;;;5055271;28;20025;-54
2022/12/22 07:34:49;;;;;;;56.95;28.95;;;6.30;96.40;;;;;;5036926;28;20028;-52
2022/12/22 07:37:16;;;;;;;64.50;30.03;;;6.30;96.40;;;;;;5037355;28;20030;-50
2022/12/22 07:39:42;;;;;;;70.25;31.60;;;6.30;96.40;;;;;;5036933;28;20388;-54
2022/12/22 07:44:56;;;;;;;71.68;32.75;;;6.40;96.40;;;;;;5056734;28;20496;-54
2022/12/22 07:47:22;;;;;;;74.75;30.88;;;6.40;96.40;;;;;;5057103;28;20090;-55
2022/12/22 07:52:36;;;;;;;67.60;30.40;;;6.30;96.30;;;;;;5036613;28;20083;-55
2022/12/22 07:55:03;;;;;;;64.05;29.65;;;6.30;96.30;;;;;;5036576;28;20048;-53
2022/12/22 07:57:30;;;;;;;77.45;31.73;;;6.20;96.30;;;;;;5036810;28;20030;-56
2022/12/22 07:59:57;;;;;;;71.07;30.77;;;6.20;96.30;;;;;;5036596;28;20037;-56
2022/12/22 08:02:23;;;;;;;66.45;31.00;;;6.10;96.30;;;;;;5053672;28;20135;-52
2022/12/22 08:04:49;;;;;;;66.88;31.25;;;6.10;96.30;;;;;;5055348;28;20043;-51
2022/12/22 08:07:15;;;;;;;67.18;30.90;;;6.10;96.30;;;;;;5050785;28;20114;-56
2022/12/22 08:09:42;;;;;;;66.10;28.17;;;6.00;96.30;;;;;;5036216;28;20033;-54
2022/12/22 08:12:08;;;;;;;72.30;29.70;;;6.00;96.30;;;;;;5036441;28;20439;-52
2022/12/22 08:14:35;;;;;;;80.82;32.45;;;6.00;96.30;;;;;;5036310;28;20459;-50
2022/12/22 08:17:02;;;;;;;100.78;38.72;;;6.00;96.40;;;;;;5035277;28;20041;-55
2022/12/22 08:19:29;;;;;;;82.25;33.95;;;6.10;96.40;;;;;;5035327;28;20029;-55
2022/12/22 08:21:56;;;;;;;89.72;34.35;;;6.20;96.50;;;;;;5036302;28;20036;-51
2022/12/22 08:24:22;;;;;;;92.63;35.70;;;6.30;96.50;;;;;;5051407;28;20466;-56
2022/12/22 08:26:54;;;;;;;97.63;35.70;;;6.40;96.50;;;;;;5056096;28;20048;-53
2022/12/22 08:29:27;;;;;;;80.35;31.88;;;6.40;96.50;;;;;;5056011;28;20537;-55
2022/12/22 08:31:59;;;;;;;75.50;31.60;;;6.60;96.50;;;;;;5041000;28;20545;-54
2022/12/22 08:34:28;;;;;;;72.75;32.15;;;6.70;96.50;;;;;;5034704;28;20164;-54
2022/12/22 08:36:59;;;;;;;78.70;33.00;;;6.70;96.50;;;;;;5036126;28;20037;-50
2022/12/22 08:39:30;;;;;;;73.20;30.00;;;6.80;96.50;;;;;;5035926;28;20033;-54
2022/12/22 08:41:58;;;;;;;67.03;29.65;;;6.80;96.50;;;;;;5047247;28;20035;-51
2022/12/22 08:44:26;;;;;;;61.65;28.13;;;6.80;96.40;;;;;;5054758;28;20021;-53
2022/12/22 08:46:58;;;;;;;58.13;26.90;;;6.90;96.40;;;;;;5055648;28;20082;-49
2022/12/22 08:49:25;;;;;;;54.08;25.40;;;6.90;96.40;;;;;;5035336;28;20112;-54
2022/12/22 08:51:53;;;;;;;42.70;22.17;;;6.90;96.40;;;;;;5044359;28;20029;-50
2022/12/22 08:54:20;;;;;;;44.35;22.25;;;6.90;96.40;;;;;;5055628;28;20029;-51
2022/12/22 08:56:48;;;;;;;37.25;20.40;;;6.80;96.30;;;;;;5052938;28;20389;-55
2022/12/22 08:59:18;;;;;;;43.60;21.25;;;6.80;96.20;;;;;;5035481;28;20446;-52
2022/12/22 09:01:49;;;;;;;48.45;22.75;;;6.70;96.20;;;;;;5038928;28;20060;-50
2022/12/22 09:04:18;;;;;;;45.47;22.63;;;6.70;96.20;;;;;;5054452;28;20028;-50
2022/12/22 09:06:45;;;;;;;42.28;20.65;;;6.70;96.20;;;;;;5055332;28;20025;-54
2022/12/22 09:09:15;;;;;;;52.03;22.88;;;6.70;96.20;;;;;;5055444;28;20029;-48
2022/12/22 09:11:42;;;;;;;44.10;22.45;;;6.80;96.20;;;;;;5047218;28;20537;-50
2022/12/22 09:14:10;;;;;;;41.88;22.85;;;6.90;96.20;;;;;;5034431;28;20040;-49
2022/12/22 09:16:37;;;;;;;46.42;22.48;;;6.90;96.20;;;;;;5035418;28;20022;-51
2022/12/22 09:19:05;;;;;;;45.15;20.88;;;7.00;96.10;;;;;;5045688;28;20445;-50
2022/12/22 09:21:36;;;;;;;39.38;21.35;;;7.00;96.10;;;;;;5054938;28;20025;-49
2022/12/22 09:24:06;;;;;;;41.28;21.42;;;7.10;96.10;;;;;;5054084;28;20340;-48
2022/12/22 09:26:34;;;;;;;40.47;20.70;;;7.10;96.10;;;;;;5044250;28;20033;-50
2022/12/22 09:29:03;;;;;;;41.10;21.23;;;7.10;96.00;;;;;;5035156;28;20371;-48
2022/12/22 09:31:30;;;;;;;43.25;21.17;;;7.20;96.00;;;;;;5035006;28;20037;-52
2022/12/22 09:33:57;;;;;;;38.60;18.73;;;7.20;96.00;;;;;;5045761;28;20100;-47
2022/12/22 09:36:27;;;;;;;41.22;19.95;;;7.20;95.90;;;;;;5054864;28;20029;-49
2022/12/22 09:38:55;;;;;;;46.75;21.92;;;7.30;95.90;;;;;;5045811;28;20052;-50
2022/12/22 09:41:33;;;;;;;39.75;19.23;;;7.20;95.80;;;;;;5034683;28;20087;-51
2022/12/22 09:44:27;;;;;;;37.22;19.23;;;7.20;95.80;;;;;;5041344;28;20136;-48
2022/12/22 09:47:03;;;;;;;34.58;18.52;;;7.10;95.80;;;;;;5054375;28;20032;-51
2022/12/22 09:49:30;;;;;;;41.17;20.70;;;7.00;95.70;;;;;;5035211;28;20057;-47
2022/12/22 09:52:02;;;;;;;36.53;21.15;;;7.00;95.70;;;;;;5034410;28;20038;-51
2022/12/22 09:54:29;;;;;;;29.17;16.73;;;7.00;95.60;;;;;;5051322;28;20016;-49
2022/12/22 09:56:56;;;;;;;34.65;19.20;;;6.90;95.60;;;;;;5053568;28;20025;-50
2022/12/22 09:59:30;;;;;;;33.67;20.10;;;6.90;95.60;;;;;;5047743;28;20026;-49
2022/12/22 10:02:02;;;;;;;33.20;18.98;;;6.90;95.60;;;;;;5034015;28;20497;-49
2022/12/22 10:04:56;;;;;;;40.20;20.02;;;6.80;95.50;;;;;;5034481;28;20053;-51
2022/12/22 10:07:41;;;;;;;33.65;18.23;;;6.80;95.60;;;;;;5033430;28;20029;-48
2022/12/22 10:10:23;;;;;;;33.60;19.65;;;6.90;95.60;;;;;;5046439;28;20115;-48
2022/12/22 10:12:56;;;;;;;36.30;18.73;;;6.90;95.60;;;;;;5054123;28;20193;-53
2022/12/22 10:15:24;;;;;;;31.70;18.05;;;6.90;95.60;;;;;;5047262;28;20428;-52
2022/12/22 10:17:53;;;;;;;37.42;19.52;;;6.90;95.50;;;;;;5034252;28;20044;-48
2022/12/22 10:20:38;;;;;;;37.40;18.37;;;6.90;95.50;;;;;;5033568;28;20449;-49
2022/12/22 10:23:27;;;;;;;33.80;17.88;;;6.90;95.40;;;;;;5014355;28;20075;-51
2022/12/22 10:26:12;;;;;;;36.22;19.48;;;6.90;95.40;;;;;;5013724;28;20053;-49
2022/12/22 10:28:45;;;;;;;35.72;18.65;;;6.90;95.40;;;;;;5026554;28;20148;-51
2022/12/22 10:31:21;;;;;;;38.58;20.27;;;6.80;95.30;;;;;;5014182;28;20044;-52
2022/12/22 10:33:53;;;;;;;40.58;19.85;;;6.90;95.40;;;;;;5032249;28;20057;-48
2022/12/22 10:36:24;;;;;;;37.65;19.83;;;6.80;95.30;;;;;;5033891;28;20021;-50
2022/12/22 10:39:05;;;;;;;42.10;19.85;;;6.90;95.40;;;;;;5033890;28;20049;-54
2022/12/22 10:41:39;;;;;;;36.53;19.42;;;7.00;95.40;;;;;;5033948;28;20060;-49
2022/12/22 10:44:18;;;;;;;37.78;18.30;;;7.10;95.30;;;;;;5052639;28;20033;-48
2022/12/22 10:47:18;;;;;;;29.67;16.25;;;7.10;95.20;;;;;;5053279;28;20123;-50
2022/12/22 10:49:58;;;;;;;35.83;16.33;;;7.20;95.30;;;;;;5052776;28;20037;-47
2022/12/22 10:52:30;;;;;;;30.13;15.52;;;7.30;95.20;;;;;;5013756;28;20105;-50
2022/12/22 10:55:24;;;;;;;30.88;13.98;;;7.40;95.20;;;;;;5013836;28;20029;-50
2022/12/22 10:58:07;;;;;;;24.98;13.93;;;7.40;95.00;;;;;;5013538;28;20034;-50
2022/12/22 11:00:33;;;;;;;26.85;14.27;;;7.50;95.00;;;;;;5026326;28;20057;-53
2022/12/22 11:03:01;;;;;;;28.08;15.07;;;7.60;95.00;;;;;;5033489;28;20138;-48
2022/12/22 11:05:29;;;;;;;27.90;12.70;;;7.60;94.80;;;;;;5036338;28;20359;-52
2022/12/22 11:08:04;;;;;;;24.85;12.50;;;7.50;94.60;;;;;;5053528;28;20028;-50
2022/12/22 11:10:48;;;;;;;22.63;13.77;;;7.40;94.50;;;;;;5052101;28;20458;-46
2022/12/22 11:13:53;;;;;;;26.10;11.90;;;7.40;94.40;;;;;;5034809;28;20033;-46
2022/12/22 11:16:59;;;;;;;27.27;12.60;;;7.40;94.40;;;;;;5053151;28;20482;-49
2022/12/22 11:19:55;;;;;;;22.30;12.70;;;7.30;94.20;;;;;;5051378;28;20033;-46
2022/12/22 11:22:24;;;;;;;30.13;14.38;;;7.20;94.20;;;;;;5050305;28;20029;-46
2022/12/22 11:25:16;;;;;;;22.27;12.38;;;7.10;94.10;;;;;;5052747;28;20064;-48
2022/12/22 11:28:19;;;;;;;24.17;13.80;;;7.10;94.20;;;;;;5052914;28;20043;-46
2022/12/22 11:30:57;;;;;;;21.27;12.38;;;7.20;94.10;;;;;;5012327;28;20034;-46
2022/12/22 11:33:43;;;;;;;25.60;12.60;;;7.20;94.10;;;;;;5013378;28;20017;-46
2022/12/22 11:36:43;;;;;;;20.58;12.20;;;7.20;94.00;;;;;;5013171;28;20438;-48
2022/12/22 11:39:14;;;;;;;19.48;11.90;;;7.20;94.00;;;;;;5010151;28;20042;-46
2022/12/22 11:42:06;;;;;;;21.40;12.90;;;7.20;94.00;;;;;;5014460;28;20034;-47
2022/12/22 11:45:01;;;;;;;23.58;12.85;;;7.20;94.00;;;;;;5051986;28;20033;-48
2022/12/22 11:47:38;;;;;;;39.25;13.32;;;7.20;93.90;;;;;;5050903;28;20042;-45
2022/12/22 11:50:34;;;;;;;28.23;13.75;;;7.20;93.90;;;;;;5052511;28;20442;-48
2022/12/22 11:53:31;;;;;;;18.58;11.05;;;7.20;93.80;;;;;;5051768;28;20025;-50
2022/12/22 11:56:17;;;;;;;22.55;12.80;;;7.20;93.90;;;;;;5012111;28;20041;-46
2022/12/22 11:59:11;;;;;;;20.98;12.68;;;7.20;93.90;;;;;;5013223;28;20032;-45
2022/12/22 12:01:45;;;;;;;20.85;12.43;;;7.30;93.90;;;;;;5012896;28;20050;-49
2022/12/22 12:04:38;;;;;;;22.85;12.13;;;7.30;93.80;;;;;;5032138;28;20044;-45
2022/12/22 12:07:25;;;;;;;19.88;11.18;;;7.30;93.80;;;;;;5048594;28;20041;-47
2022/12/22 12:10:14;;;;;;;19.58;11.77;;;7.30;93.80;;;;;;5032634;28;20506;-45
2022/12/22 12:13:05;;;;;;;19.95;11.80;;;7.30;93.80;;;;;;5032769;28;20057;-44
2022/12/22 12:15:39;;;;;;;23.33;12.82;;;7.30;93.70;;;;;;5037967;28;20096;-49
2022/12/22 12:18:25;;;;;;;23.33;11.13;;;7.40;93.90;;;;;;5056391;28;20017;-44
2022/12/22 12:21:17;;;;;;;16.77;10.52;;;7.50;93.80;;;;;;5056214;28;20032;-47
2022/12/22 12:23:51;;;;;;;19.27;11.90;;;7.50;93.70;;;;;;5015294;28;20052;-46
2022/12/22 12:26:42;;;;;;;18.45;10.88;;;7.60;93.70;;;;;;5016366;28;20456;-49
2022/12/22 12:29:27;;;;;;;21.27;10.82;;;7.60;93.60;;;;;;5030183;28;20061;-44
2022/12/22 12:32:13;;;;;;;20.92;11.23;;;7.60;93.60;;;;;;5016106;28;20114;-45
2022/12/22 12:34:56;;;;;;;23.92;11.73;;;7.60;93.50;;;;;;5016490;28;20523;-44
2022/12/22 12:37:47;;;;;;;26.35;10.52;;;7.60;93.30;;;;;;5024414;28;20021;-47
2022/12/22 12:40:35;;;;;;;22.95;11.45;;;7.50;93.40;;;;;;5054810;28;20033;-48
2022/12/22 12:43:03;;;;;;;21.83;11.63;;;7.40;93.40;;;;;;5055771;28;20068;-45
2022/12/22 12:45:42;;;;;;;24.90;11.52;;;7.40;93.40;;;;;;5056091;28;20086;-45
2022/12/22 12:48:20;;;;;;;20.00;10.73;;;7.40;93.30;;;;;;5043509;28;20091;-45
2022/12/22 12:50:54;;;;;;;24.65;11.65;;;7.30;93.30;;;;;;5039483;28;20291;-48
2022/12/22 12:53:23;;;;;;;19.27;12.05;;;7.30;93.40;;;;;;5055704;28;20101;-47
2022/12/22 12:56:10;;;;;;;26.20;11.68;;;7.30;93.40;;;;;;5055562;28;20024;-47
2022/12/22 12:58:56;;;;;;;18.65;9.82;;;7.30;93.40;;;;;;5042647;28;20175;-46
2022/12/22 13:01:28;;;;;;;21.30;10.60;;;7.30;93.40;;;;;;5034307;28;20116;-46
2022/12/22 13:03:55;;;;;;;21.48;10.40;;;7.30;93.40;;;;;;5035567;28;20044;-48
2022/12/22 13:06:58;;;;;;;17.23;9.95;;;7.30;93.40;;;;;;5035309;28;20099;-46
2022/12/22 13:09:27;;;;;;;24.20;10.30;;;7.30;93.50;;;;;;5035261;28;20025;-46
2022/12/22 13:11:55;;;;;;;25.73;9.75;;;7.40;93.50;;;;;;5034428;28;20461;-44
2022/12/22 13:14:59;;;;;;;21.25;12.25;;;7.50;93.50;;;;;;5034214;28;20026;-45
2022/12/22 13:17:49;;;;;;;20.20;10.70;;;7.50;93.50;;;;;;5047536;28;20118;-45
2022/12/22 13:20:24;;;;;;;19.38;11.43;;;7.60;93.50;;;;;;5055032;28;20029;-47
2022/12/22 13:22:56;;;;;;;22.98;11.02;;;7.70;93.40;;;;;;5053898;28;20029;-46
2022/12/22 13:25:35;;;;;;;24.23;12.38;;;7.70;93.40;;;;;;5015399;28;20021;-48
2022/12/22 13:28:02;;;;;;;20.27;11.07;;;7.70;93.20;;;;;;5013777;28;20029;-45
2022/12/22 13:30:34;;;;;;;17.42;11.30;;;7.70;93.00;;;;;;5014560;28;20026;-44
2022/12/22 13:33:02;;;;;;;20.15;9.90;;;7.70;93.00;;;;;;5029814;28;20048;-44
2022/12/22 13:35:37;;;;;;;17.98;10.18;;;7.70;93.00;;;;;;5033941;28;20017;-44
2022/12/22 13:38:03;;;;;;;19.73;9.95;;;7.70;92.90;;;;;;5017140;28;20120;-44
2022/12/22 13:40:38;;;;;;;18.05;9.48;;;7.70;92.80;;;;;;5045598;28;20103;-45
2022/12/22 13:43:23;;;;;;;23.52;10.00;;;7.70;92.70;;;;;;5036903;28;20132;-44
2022/12/22 13:45:55;;;;;;;19.05;9.27;;;7.60;92.60;;;;;;5054633;28;20029;-46
2022/12/22 13:48:41;;;;;;;20.73;9.13;;;7.60;92.60;;;;;;5054633;28;20028;-46
2022/12/22 13:51:16;;;;;;;17.65;7.95;;;7.50;92.40;;;;;;5052035;28;20086;-45
2022/12/22 13:53:55;;;;;;;15.27;8.23;;;7.50;92.40;;;;;;5053063;28;20466;-47
2022/12/22 13:56:34;;;;;;;20.73;9.37;;;7.40;92.40;;;;;;5054216;28;20021;-44
2022/12/22 13:59:02;;;;;;;14.98;8.13;;;7.40;92.50;;;;;;5053091;28;20516;-45
2022/12/22 14:01:29;;;;;;;16.58;8.52;;;7.40;92.50;;;;;;5054293;28;20452;-47
2022/12/22 14:04:02;;;;;;;15.07;8.10;;;7.30;92.50;;;;;;5046447;28;20033;-49
2022/12/22 14:06:39;;;;;;;13.70;7.93;;;7.20;92.60;;;;;;5034427;28;20022;-44
2022/12/22 14:09:25;;;;;;;17.95;7.90;;;7.20;92.70;;;;;;5033221;28;20037;-46
2022/12/22 14:11:59;;;;;;;18.17;8.48;;;7.20;92.80;;;;;;5033210;28;20029;-47
2022/12/22 14:14:30;;;;;;;13.32;6.43;;;7.10;92.80;;;;;;5047466;28;20060;-45
2022/12/22 14:17:02;;;;;;;15.85;7.43;;;7.10;92.80;;;;;;5053315;28;20121;-48
2022/12/22 14:19:38;;;;;;;16.05;6.93;;;7.00;92.90;;;;;;5053758;28;20032;-44
2022/12/22 14:22:13;;;;;;;13.52;7.30;;;7.00;92.90;;;;;;5050044;28;20045;-43
2022/12/22 14:24:54;;;;;;;14.00;6.95;;;7.00;92.90;;;;;;5033148;28;20107;-44
2022/12/22 14:27:37;;;;;;;14.23;6.68;;;6.90;93.00;;;;;;5016589;28;20048;-45
2022/12/22 14:30:14;;;;;;;17.90;6.60;;;6.90;93.00;;;;;;5033669;28;20120;-44
2022/12/22 14:32:50;;;;;;;16.88;7.57;;;6.90;93.00;;;;;;5033025;28;20037;-44
2022/12/22 14:35:34;;;;;;;18.70;7.63;;;6.90;93.10;;;;;;5033931;28;20572;-44
2022/12/22 14:38:22;;;;;;;9.90;6.22;;;6.90;93.20;;;;;;5033430;28;20382;-46
2022/12/22 14:40:50;;;;;;;14.48;6.55;;;6.90;93.30;;;;;;5012200;28;20089;-44
2022/12/22 14:43:25;;;;;;;16.55;8.05;;;6.90;93.20;;;;;;5033631;28;20029;-46
2022/12/22 14:46:01;;;;;;;16.90;7.45;;;6.90;93.30;;;;;;5052648;28;20028;-49
2022/12/22 14:48:44;;;;;;;10.68;6.13;;;6.90;93.30;;;;;;5052596;28;20342;-44
2022/12/22 14:51:17;;;;;;;14.77;6.45;;;6.90;93.40;;;;;;5053547;28;20064;-49
2022/12/22 14:53:48;;;;;;;19.95;7.57;;;6.90;93.50;;;;;;5035122;28;20033;-45
2022/12/22 14:56:17;;;;;;;14.95;7.05;;;6.90;93.60;;;;;;5031449;28;20025;-50
2022/12/22 14:58:44;;;;;;;18.85;7.68;;;6.90;93.60;;;;;;5033750;28;20026;-44
2022/12/22 15:01:30;;;;;;;17.13;7.35;;;6.90;93.60;;;;;;5033458;28;20026;-44
2022/12/22 15:04:15;;;;;;;18.33;7.20;;;6.90;93.70;;;;;;5050004;28;20041;-49
2022/12/22 15:06:46;;;;;;;19.65;6.68;;;6.90;93.70;;;;;;5042321;28;20029;-46
2022/12/22 15:09:15;;;;;;;11.98;5.93;;;6.90;93.80;;;;;;5033950;28;20052;-45
2022/12/22 15:12:04;;;;;;;16.38;6.90;;;7.00;93.70;;;;;;5033464;28;20021;-47
2022/12/22 15:14:34;;;;;;;16.13;7.20;;;6.90;93.80;;;;;;5039603;28;20044;-45
2022/12/22 15:17:01;;;;;;;17.23;8.13;;;7.00;93.80;;;;;;5053485;28;20463;-44
2022/12/22 15:19:33;;;;;;;15.88;6.82;;;7.00;93.80;;;;;;5052942;28;20054;-44
2022/12/22 15:22:01;;;;;;;15.77;5.95;;;7.00;93.90;;;;;;5051625;28;20040;-44
2022/12/22 15:24:28;;;;;;;21.75;6.97;;;7.00;93.80;;;;;;5050687;28;20029;-46
2022/12/22 15:26:57;;;;;;;14.48;6.93;;;7.00;93.90;;;;;;5051814;28;20040;-49
2022/12/22 15:29:24;;;;;;;13.88;6.80;;;7.10;93.90;;;;;;5052139;28;20036;-44
2022/12/22 15:31:51;;;;;;;18.75;7.63;;;7.10;93.90;;;;;;5052114;28;20037;-44
2022/12/22 15:34:26;;;;;;;13.90;6.38;;;7.10;93.80;;;;;;5042614;28;20026;-48
2022/12/22 15:36:56;;;;;;;21.48;7.03;;;7.10;93.90;;;;;;5031925;28;20033;-45
2022/12/22 15:39:25;;;;;;;20.35;7.03;;;7.10;93.80;;;;;;5032549;28;20036;-44
2022/12/22 15:41:53;;;;;;;;;;;7.10;93.90;;;;;;5053643;28;20040;-45
2022/12/22 15:44:23;;;;;;;15.25;6.43;;;7.10;93.90;;;;;;5052971;28;20018;-45
2022/12/22 15:46:56;;;;;;;15.82;6.35;;;7.10;93.90;;;;;;5051308;28;20346;-43
2022/12/22 15:49:25;;;;;;;17.02;6.03;;;7.10;93.90;;;;;;5032530;28;20124;-45
2022/12/22 15:52:02;;;;;;;16.17;6.22;;;7.10;93.90;;;;;;5034142;28;20065;-44
2022/12/22 15:54:31;;;;;;;22.00;7.55;;;7.10;93.90;;;;;;5036953;28;20385;-51
2022/12/22 15:56:58;;;;;;;21.95;7.15;;;7.20;93.90;;;;;;5037000;28;20017;-47
2022/12/22 15:59:26;;;;;;;18.67;5.45;;;7.20;93.90;;;;;;5036784;28;20040;-47
2022/12/22 16:01:53;;;;;;;14.05;5.80;;;7.10;93.80;;;;;;5036479;28;20132;-48
2022/12/22 16:04:21;;;;;;;19.05;7.50;;;7.10;93.80;;;;;;5035649;28;20148;-46
2022/12/22 16:06:49;;;;;;;18.27;6.45;;;7.20;93.80;;;;;;5036780;28;20041;-48
2022/12/22 16:09:26;;;;;;;13.75;6.25;;;7.10;93.70;;;;;;5036450;28;20018;-44
2022/12/22 16:11:53;;;;;;;15.13;5.68;;;7.10;93.70;;;;;;5035810;28;20147;-43
2022/12/22 16:14:21;;;;;;;18.23;6.43;;;7.10;93.70;;;;;;5036498;28;20418;-46
2022/12/22 16:16:47;;;;;;;13.80;5.72;;;7.10;93.70;;;;;;5036386;28;20029;-47
2022/12/22 16:19:19;;;;;;;18.25;6.00;;;7.10;93.80;;;;;;5036157;28;20332;-45
2022/12/22 16:21:50;;;;;;;14.70;6.38;;;7.10;93.70;;;;;;5047806;28;20033;-44
2022/12/22 16:24:38;;;;;;;20.95;7.60;;;7.10;93.80;;;;;;5056221;28;20021;-45
2022/12/22 16:27:04;;;;;;;17.52;6.50;;;7.10;93.70;;;;;;5055958;28;20021;-46
2022/12/22 16:29:33;;;;;;;12.30;6.05;;;7.10;93.70;;;;;;5056151;28;20140;-46
2022/12/22 16:32:27;;;;;;;13.33;5.50;;;7.00;93.70;;;;;;5035755;28;20111;-45
2022/12/22 16:35:12;;;;;;;16.42;5.85;;;7.10;93.80;;;;;;5035575;28;20038;-45
2022/12/22 16:37:41;;;;;;;13.00;5.47;;;7.00;93.80;;;;;;5036116;28;20022;-45
2022/12/22 16:40:09;;;;;;;17.52;6.22;;;7.10;93.80;;;;;;5035832;28;20017;-47
2022/12/22 16:42:41;;;;;;;18.20;6.78;;;7.00;93.80;;;;;;5036046;28;20033;-44
2022/12/22 16:45:17;;;;;;;16.33;5.70;;;7.00;93.80;;;;;;5039576;28;20024;-45
2022/12/22 16:47:47;;;;;;;12.95;6.22;;;7.10;93.90;;;;;;5054913;28;20035;-44
2022/12/22 16:50:26;;;;;;;18.75;8.10;;;7.00;93.90;;;;;;5055603;28;20029;-44
2022/12/22 16:52:55;;;;;;;19.60;7.18;;;7.00;93.90;;;;;;5038723;28;20038;-48